createdAt,value
2024-02-01T00:01:45.053Z,9.30
2024-02-01T00:05:46.632Z,9.50
2024-02-01T00:09:49.064Z,9.60
2024-02-01T00:13:50.405Z,9.50
2024-02-01T00:17:51.815Z,9.70
2024-02-01T00:21:53.592Z,9.60
2024-02-01T00:25:54.948Z,9.70
2024-02-01T00:29:56.424Z,9.70
2024-02-01T00:34:00.349Z,9.80
2024-02-01T00:38:01.775Z,9.80
2024-02-01T00:42:03.993Z,9.70
2024-02-01T00:46:05.540Z,9.80
2024-02-01T00:50:07.179Z,9.70
2024-02-01T00:54:08.588Z,9.50
2024-02-01T00:58:09.876Z,9.50
2024-02-01T01:02:11.312Z,9.50
2024-02-01T01:06:12.725Z,9.60
2024-02-01T01:10:14.203Z,9.50
2024-02-01T01:14:15.569Z,9.50
2024-02-01T01:18:16.971Z,9.60
2024-02-01T01:22:18.296Z,9.60
2024-02-01T01:26:24.825Z,9.40
2024-02-01T01:30:26.142Z,9.30
2024-02-01T01:34:27.510Z,9.60
2024-02-01T01:38:28.888Z,9.60
2024-02-01T01:42:30.260Z,9.50
2024-02-01T01:46:32.360Z,9.60
2024-02-01T01:50:33.822Z,9.70
2024-02-01T01:54:36.583Z,9.80
2024-02-01T01:58:40.061Z,9.70
2024-02-01T02:02:42.929Z,9.70
2024-02-01T02:06:44.444Z,9.80
2024-02-01T02:10:45.997Z,9.80
2024-02-01T02:15:01.495Z,9.70
2024-02-01T02:19:06.878Z,9.90
2024-02-01T02:23:11.390Z,9.80
2024-02-01T02:27:12.967Z,9.80
2024-02-01T02:31:14.311Z,9.90
2024-02-01T02:35:17.048Z,9.80
2024-02-01T02:39:18.479Z,9.80
2024-02-01T02:43:19.830Z,9.90
2024-02-01T02:47:21.130Z,9.80
2024-02-01T02:51:22.711Z,10.00
2024-02-01T02:55:23.963Z,10.00
2024-02-01T02:59:25.267Z,9.90
2024-02-01T03:03:26.652Z,9.90
2024-02-01T03:07:28.507Z,10.00
2024-02-01T03:11:29.821Z,9.70
2024-02-01T03:15:31.176Z,9.70
2024-02-01T03:19:36.052Z,9.80
2024-02-01T03:23:37.932Z,9.80
2024-02-01T03:27:44.449Z,9.90
2024-02-01T03:31:45.863Z,9.90
2024-02-01T03:35:49.067Z,9.80
2024-02-01T03:39:50.385Z,9.60
2024-02-01T03:43:51.671Z,9.60
2024-02-01T03:47:53.166Z,9.40
2024-02-01T03:51:54.599Z,9.50
2024-02-01T03:55:55.956Z,9.50
2024-02-01T03:59:57.510Z,9.40
2024-02-01T04:03:58.957Z,9.40
2024-02-01T04:08:00.306Z,9.40
2024-02-01T04:12:02.185Z,9.40
2024-02-01T04:16:03.796Z,9.40
2024-02-01T04:20:06.176Z,9.40
2024-02-01T04:24:07.660Z,9.30
2024-02-01T04:28:09.096Z,9.20
2024-02-01T04:32:10.762Z,9.20
2024-02-01T04:36:12.709Z,9.20
2024-02-01T04:40:14.218Z,9.10
2024-02-01T04:44:15.601Z,9.20
2024-02-01T04:48:16.954Z,9.20
2024-02-01T04:52:18.386Z,9.30
2024-02-01T04:56:19.714Z,9.20
2024-02-01T05:00:21.909Z,9.10
2024-02-01T05:04:23.285Z,9.20
2024-02-01T05:08:24.604Z,9.10
2024-02-01T05:12:26.012Z,9.00
2024-02-01T05:16:27.407Z,8.90
2024-02-01T05:20:28.710Z,8.90
2024-02-01T05:24:30.035Z,8.90
2024-02-01T05:28:33.309Z,9.10
2024-02-01T05:32:34.622Z,9.10
2024-02-01T05:36:35.948Z,9.00
2024-02-01T05:40:39.775Z,8.90
2024-02-01T05:44:41.137Z,8.90
2024-02-01T05:48:43.728Z,9.00
2024-02-01T05:52:45.316Z,9.00
2024-02-01T05:56:48.047Z,8.90
2024-02-01T06:00:50.369Z,8.90
2024-02-01T06:04:52.265Z,8.70
2024-02-01T06:08:53.556Z,9.00
2024-02-01T06:12:54.936Z,8.90
2024-02-01T06:16:56.262Z,9.10
2024-02-01T06:20:57.594Z,8.90
2024-02-01T06:24:58.887Z,9.00
2024-02-01T06:29:04.691Z,9.20
2024-02-01T06:33:06.874Z,9.00
2024-02-01T06:37:09.303Z,9.20
2024-02-01T06:41:19.679Z,9.30
2024-02-01T06:45:30.555Z,9.30
2024-02-01T06:49:36.637Z,9.10
2024-02-01T06:53:40.095Z,9.30
2024-02-01T06:58:01.115Z,9.30
2024-02-01T07:02:19.086Z,9.30
2024-02-01T07:06:27.984Z,9.30
2024-02-01T07:10:46.557Z,9.20
2024-02-01T07:14:52.542Z,9.30
2024-02-01T07:18:59.818Z,9.30
2024-02-01T07:23:03.524Z,9.30
2024-02-01T07:27:26.382Z,9.40
2024-02-01T07:31:46.169Z,9.30
2024-02-01T07:36:05.990Z,9.40
2024-02-01T07:40:26.413Z,9.20
2024-02-01T07:44:41.309Z,9.30
2024-02-01T07:49:00.837Z,9.30
2024-02-01T07:53:20.596Z,9.40
2024-02-01T07:57:38.800Z,9.60
2024-02-01T08:01:42.089Z,9.60
2024-02-01T08:06:01.776Z,9.70
2024-02-01T08:10:04.047Z,9.70
2024-02-01T08:14:07.277Z,9.70
2024-02-01T08:18:10.760Z,9.90
2024-02-01T08:22:14.484Z,9.90
2024-02-01T08:26:17.070Z,9.90
2024-02-01T08:30:20.298Z,9.90
2024-02-01T08:34:22.349Z,10.10
2024-02-01T08:38:23.644Z,9.90
2024-02-01T08:42:26.958Z,9.90
2024-02-01T08:46:28.227Z,10.40
2024-02-01T08:50:46.893Z,11.30
2024-02-01T08:54:50.631Z,11.90
2024-02-01T08:58:52.802Z,12.80
2024-02-01T09:03:07.804Z,13.30
2024-02-01T09:07:09.964Z,13.80
2024-02-01T09:11:13.775Z,14.20
2024-02-01T09:15:16.401Z,14.70
2024-02-01T09:19:18.040Z,14.90
2024-02-01T09:23:20.568Z,14.90
2024-02-01T09:27:24.766Z,14.10
2024-02-01T09:31:26.351Z,13.30
2024-02-01T09:35:27.720Z,12.70
2024-02-01T09:39:29.864Z,12.30
2024-02-01T09:43:33.680Z,12.20
2024-02-01T09:47:49.714Z,12.60
2024-02-01T09:51:52.777Z,12.60
2024-02-01T09:55:59.504Z,12.90
2024-02-01T10:00:05.110Z,13.10
2024-02-01T10:04:14.616Z,13.40
2024-02-01T10:08:18.094Z,13.40
2024-02-01T10:12:22.200Z,13.50
2024-02-01T10:16:24.409Z,13.40
2024-02-01T10:20:34.510Z,13.20
2024-02-01T10:24:41.674Z,13.00
2024-02-01T10:28:43.970Z,12.80
2024-02-01T10:32:47.721Z,12.40
2024-02-01T10:36:53.620Z,12.60
2024-02-01T10:41:14.418Z,12.50
2024-02-01T10:45:19.629Z,12.40
2024-02-01T10:49:25.915Z,12.30
2024-02-01T10:53:30.911Z,12.40
2024-02-01T10:57:39.121Z,12.30
2024-02-01T11:01:42.224Z,12.40
2024-02-01T11:05:45.778Z,12.50
2024-02-01T11:09:49.909Z,12.50
2024-02-01T11:14:14.122Z,13.00
2024-02-01T11:18:18.335Z,13.90
2024-02-01T11:22:20.448Z,14.80
2024-02-01T11:26:23.544Z,15.60
2024-02-01T11:30:26.838Z,16.30
2024-02-01T11:34:28.900Z,16.50
2024-02-01T11:38:30.400Z,16.30
2024-02-01T11:42:33.583Z,16.30
2024-02-01T11:46:35.717Z,15.40
2024-02-01T11:50:37.267Z,14.40
2024-02-01T11:54:38.860Z,14.30
2024-02-01T11:58:42.456Z,14.20
2024-02-01T12:02:47.930Z,14.40
2024-02-01T12:06:49.743Z,15.10
2024-02-01T12:10:51.442Z,15.50
2024-02-01T12:14:55.750Z,15.90
2024-02-01T12:19:01.190Z,16.30
2024-02-01T12:23:05.220Z,16.60
2024-02-01T12:27:07.635Z,15.70
2024-02-01T12:31:10.618Z,15.40
2024-02-01T12:35:12.954Z,15.60
2024-02-01T12:39:15.147Z,15.30
2024-02-01T12:43:18.419Z,15.30
2024-02-01T12:47:21.628Z,14.60
2024-02-01T12:51:25.017Z,14.40
2024-02-01T12:55:26.571Z,13.90
2024-02-01T12:59:28.108Z,13.50
2024-02-01T13:03:32.964Z,13.30
2024-02-01T13:07:37.764Z,12.80
2024-02-01T13:11:41.103Z,12.60
2024-02-01T13:15:48.250Z,12.30
2024-02-01T13:19:49.670Z,12.50
2024-02-01T13:23:51.901Z,12.60
2024-02-01T13:27:53.443Z,12.60
2024-02-01T13:31:56.928Z,12.90
2024-02-01T13:35:58.352Z,12.90
2024-02-01T13:39:59.664Z,13.00
2024-02-01T13:44:01.002Z,12.80
2024-02-01T13:48:02.659Z,12.70
2024-02-01T13:52:04.341Z,12.90
2024-02-01T13:56:08.507Z,12.90
2024-02-01T14:00:17.047Z,12.90
2024-02-01T14:04:18.911Z,12.80
2024-02-01T14:08:20.525Z,12.90
2024-02-01T14:12:22.748Z,12.90
2024-02-01T14:16:24.125Z,12.80
2024-02-01T14:20:25.841Z,13.10
2024-02-01T14:24:27.174Z,13.30
2024-02-01T14:28:28.759Z,13.10
2024-02-01T14:32:30.271Z,12.80
2024-02-01T14:36:32.070Z,12.70
2024-02-01T14:40:33.329Z,12.60
2024-02-01T14:44:36.161Z,12.50
2024-02-01T14:48:37.634Z,12.30
2024-02-01T14:52:39.115Z,12.20
2024-02-01T14:56:40.551Z,12.20
2024-02-01T15:00:41.851Z,12.20
2024-02-01T15:04:43.245Z,12.10
2024-02-01T15:08:44.967Z,11.80
2024-02-01T15:12:46.833Z,11.60
2024-02-01T15:16:48.153Z,11.50
2024-02-01T15:20:50.237Z,11.20
2024-02-01T15:24:55.312Z,11.00
2024-02-01T15:28:56.944Z,11.00
2024-02-01T15:32:58.723Z,11.00
2024-02-01T15:37:01.355Z,11.30
2024-02-01T15:41:05.920Z,11.20
2024-02-01T15:45:11.352Z,11.00
2024-02-01T15:49:14.340Z,10.70
2024-02-01T15:53:19.871Z,10.50
2024-02-01T15:57:22.908Z,10.30
2024-02-01T16:01:26.033Z,10.30
2024-02-01T16:05:58.632Z,10.10
2024-02-01T16:10:01.419Z,10.00
2024-02-01T16:14:21.494Z,10.00
2024-02-01T16:18:32.553Z,9.90
2024-02-01T16:22:50.291Z,9.80
2024-02-01T16:26:52.615Z,9.80
2024-02-01T16:31:06.515Z,9.70
2024-02-01T16:35:11.673Z,9.60
2024-02-01T16:39:25.645Z,9.60
2024-02-01T16:43:36.852Z,9.70
2024-02-01T16:47:49.189Z,9.80
2024-02-01T16:51:51.141Z,9.80
2024-02-01T16:55:55.837Z,9.80
2024-02-01T16:59:57.498Z,9.60
2024-02-01T17:03:59.743Z,9.50
2024-02-01T17:12:11.202Z,9.60
2024-02-01T17:16:28.610Z,9.50
2024-02-01T17:20:30.819Z,9.50
2024-02-01T17:24:33.184Z,9.30
2024-02-01T17:28:37.841Z,9.40
2024-02-01T17:32:39.353Z,9.30
2024-02-01T17:36:40.833Z,9.60
2024-02-01T17:40:46.201Z,9.50
2024-02-01T17:44:48.584Z,9.40
2024-02-01T17:49:01.877Z,9.30
2024-02-01T17:53:07.564Z,9.30
2024-02-01T17:57:11.010Z,9.20
2024-02-01T18:01:24.700Z,9.20
2024-02-01T18:05:28.843Z,9.10
2024-02-01T18:09:34.642Z,9.00
2024-02-01T18:13:39.905Z,9.00
2024-02-01T18:17:44.033Z,9.00
2024-02-01T18:21:47.536Z,9.00
2024-02-01T18:25:50.934Z,9.10
2024-02-01T18:29:56.706Z,8.90
2024-02-01T18:34:02.424Z,8.80
2024-02-01T18:38:13.627Z,8.70
2024-02-01T18:42:36.911Z,8.60
2024-02-01T18:46:51.309Z,8.60
2024-02-01T18:50:54.746Z,8.50
2024-02-01T18:54:56.645Z,8.40
2024-02-01T18:58:58.574Z,8.20
2024-02-01T19:02:59.920Z,8.20
2024-02-01T19:07:01.390Z,8.20
2024-02-01T19:11:03.620Z,8.20
2024-02-01T19:15:08.528Z,8.00
2024-02-01T19:19:10.243Z,7.80
2024-02-01T19:23:17.910Z,7.40
2024-02-01T19:27:36.383Z,7.40
2024-02-01T19:31:26.579Z,7.40
2024-02-01T19:35:32.441Z,7.50
2024-02-01T19:39:35.169Z,7.50
2024-02-01T19:43:38.595Z,7.60
2024-02-01T19:47:42.611Z,7.50
2024-02-01T19:51:43.871Z,7.30
2024-02-01T19:55:45.106Z,7.30
2024-02-01T19:59:47.011Z,7.30
2024-02-01T20:03:49.426Z,7.30
2024-02-01T20:07:50.739Z,7.20
2024-02-01T20:11:52.074Z,7.20
2024-02-01T20:15:53.356Z,7.20
2024-02-01T20:19:55.301Z,7.10
2024-02-01T20:23:56.823Z,6.90
2024-02-01T20:27:59.776Z,6.90
2024-02-01T20:32:01.890Z,6.90
2024-02-01T20:36:03.299Z,6.90
2024-02-01T20:40:07.060Z,6.80
2024-02-01T20:44:12.226Z,6.60
2024-02-01T20:48:17.511Z,6.50
2024-02-01T20:52:22.700Z,6.50
2024-02-01T20:56:29.546Z,6.40
2024-02-01T21:00:31.471Z,6.40
2024-02-01T21:04:34.715Z,6.30
2024-02-01T21:08:37.913Z,6.30
2024-02-01T21:12:40.346Z,6.20
2024-02-01T21:16:52.196Z,6.20
2024-02-01T21:20:57.364Z,6.20
2024-02-01T21:24:59.011Z,6.20
2024-02-01T21:29:01.950Z,6.10
2024-02-01T21:33:12.518Z,6.10
2024-02-01T21:37:14.549Z,6.00
2024-02-01T21:41:16.212Z,5.90
2024-02-01T21:45:21.344Z,6.00
2024-02-01T21:49:22.729Z,6.00
2024-02-01T21:53:24.155Z,6.00
2024-02-01T21:57:27.005Z,5.90
2024-02-01T22:01:28.411Z,5.90
2024-02-01T22:05:30.496Z,5.90
2024-02-01T22:09:31.938Z,5.80
2024-02-01T22:13:33.242Z,5.80
2024-02-01T22:17:36.429Z,6.00
2024-02-01T22:21:37.776Z,6.00
2024-02-01T22:25:39.118Z,5.90
2024-02-01T22:29:40.877Z,5.90
2024-02-01T22:33:42.444Z,5.80
2024-02-01T22:37:44.025Z,5.70
2024-02-01T22:41:46.519Z,5.60
2024-02-01T22:45:48.372Z,5.60
2024-02-01T22:49:49.774Z,5.50
2024-02-01T22:53:51.529Z,5.50
2024-02-01T22:57:52.916Z,5.60
2024-02-01T23:01:54.452Z,5.60
2024-02-01T23:05:55.826Z,5.50
2024-02-01T23:09:58.977Z,5.60
2024-02-01T23:14:00.818Z,5.50
2024-02-01T23:18:03.933Z,5.60
2024-02-01T23:22:06.371Z,5.60
2024-02-01T23:26:08.635Z,5.60
2024-02-01T23:30:10.341Z,5.60
2024-02-01T23:34:11.995Z,5.60
2024-02-01T23:38:13.922Z,5.70
2024-02-01T23:42:17.060Z,5.80
2024-02-01T23:46:19.334Z,5.90
2024-02-01T23:50:21.298Z,5.90
2024-02-01T23:54:25.035Z,5.80
2024-02-01T23:58:26.662Z,5.80
